< < Back
Terminal Aerodrome Forecast


Current Version              Previous Versions:   1  2  3  4  5  6  7  8  9  

Terminal Aerodrome Forecast

318
FTUS42 KJAX 012246 AAB
TAFSSI
TAF AMD
KSSI 012246Z 0123/0218 04005KT 3SM BR OVC004
     FM020300 02004KT 1SM BR OVC001
     FM020430 01003KT 1/4SM FG OVC001
     FM021400 36003KT 2SM BR OVC003
     FM021700 08005KT P6SM OVC010=



Latest METAR

065
SAUS70 KWBC 020300 RRG
MTRSSI
METAR KSSI 020253Z AUTO 03004KT 1 1/4SM BR OVC002 11/11 A3039 RMK AO2
SLP289 T01110106 50003


USA.gov is the U.S. government's official web portal to all federal, state and local government web resources and services.